This is the latest recevied weather packets stored in our database for station/object N7WSS. If no packets are shown the sender has not sent any weather packets the latest 10 day(s).
| Time | Temp. | Humidity | Pressure | Rain* | Wind** | Luminosity | Snow |
|---|---|---|---|---|---|---|---|
| 1788041927 | 38.33° C | 28% | 1010.9 hPa | 0 mm | - | - | - |
| 1788041622 | 38.33° C | 28% | 1010.9 hPa | 0 mm | - | - | - |
| 1788041322 | 38.33° C | 28% | 1010.9 hPa | 0 mm | - | - | - |
| 1788041021 | 38.33° C | 27% | 1011.2 hPa | 0 mm | - | - | - |
| 1788040720 | 38.89° C | 27% | 1011.2 hPa | 0 mm | - | - | - |
| 1788040415 | 38.33° C | 27% | 1011.3 hPa | 0 mm | - | - | - |
| 1788040110 | 38.89° C | 27% | 1011.2 hPa | 0 mm | - | - | - |
| 1788039806 | 38.89° C | 27% | 1011.3 hPa | 0 mm | - | - | - |
| 1788039506 | 38.89° C | 27% | 1011.4 hPa | 0 mm | - | - | - |
| 1788039201 | 39.44° C | 27% | 1011.4 hPa | 0 mm | - | - | - |
| 1788038896 | 40° C | 26% | 1011.3 hPa | 0 mm | - | - | - |
| 1788038592 | 40.56° C | 26% | 1011.5 hPa | 0 mm | - | - | - |
| 1788038290 | 40.56° C | 26% | 1011.5 hPa | 0 mm | - | - | - |
| 1788037986 | 40.56° C | 25% | 1011.4 hPa | 0 mm | - | - | - |
| 1788037681 | 40.56° C | 25% | 1011.7 hPa | 0 mm | - | - | - |
| 1788037376 | 40.56° C | 25% | 1011.5 hPa | 0 mm | - | - | - |
| 1788037075 | 40° C | 26% | 1011.8 hPa | 0 mm | - | - | - |
| 1788036770 | 40° C | 27% | 1012.1 hPa | 0 mm | - | - | - |
| 1788036467 | 39.44° C | 27% | 1012.5 hPa | 0 mm | - | - | - |
| 1788036162 | 40.56° C | 26% | 1012.3 hPa | 0 mm | - | - | - |
| 1788035862 | 40.56° C | 26% | 1012.1 hPa | 0 mm | - | - | - |
| 1788035557 | 39.44° C | 27% | 1012.4 hPa | 0 mm | - | - | - |
| 1788035252 | 39.44° C | 26% | 1012.5 hPa | 0 mm | - | - | - |
| 1788034948 | 40° C | 26% | 1012.5 hPa | 0 mm | - | - | - |
| 1788034644 | 39.44° C | 26% | 1012.6 hPa | 0 mm | - | - | - |
* Rain latest hour (hover to see other rain measurements)
** Current wind speed in m/s (hover to see current wind gust speed)